sensor_id;sensor_type;location;lat;lon;timestamp;P1;durP1;ratioP1;P2;durP2;ratioP2
24713;SDS011;12820;51.580;5.010;2022-09-09T00:02:19;3.13;;;1.27;;
24713;SDS011;12820;51.580;5.010;2022-09-09T00:13:01;3.75;;;1.50;;
24713;SDS011;12820;51.580;5.010;2022-09-09T00:23:28;4.05;;;1.55;;
24713;SDS011;12820;51.580;5.010;2022-09-09T00:28:33;5.47;;;1.33;;
24713;SDS011;12820;51.580;5.010;2022-09-09T00:33:41;4.75;;;1.77;;
24713;SDS011;12820;51.580;5.010;2022-09-09T00:38:46;3.47;;;1.58;;
24713;SDS011;12820;51.580;5.010;2022-09-09T00:43:59;3.47;;;1.55;;
24713;SDS011;12820;51.580;5.010;2022-09-09T00:55:03;3.47;;;1.70;;
24713;SDS011;12820;51.580;5.010;2022-09-09T01:10:52;5.25;;;1.83;;
24713;SDS011;12820;51.580;5.010;2022-09-09T01:16:02;4.63;;;1.70;;
24713;SDS011;12820;51.580;5.010;2022-09-09T01:21:17;3.40;;;1.63;;
24713;SDS011;12820;51.580;5.010;2022-09-09T01:26:37;4.22;;;1.65;;
24713;SDS011;12820;51.580;5.010;2022-09-09T01:31:58;4.88;;;1.60;;
24713;SDS011;12820;51.580;5.010;2022-09-09T01:37:07;5.80;;;1.90;;
24713;SDS011;12820;51.580;5.010;2022-09-09T01:42:13;4.22;;;1.95;;
24713;SDS011;12820;51.580;5.010;2022-09-09T01:47:18;3.90;;;2.00;;
24713;SDS011;12820;51.580;5.010;2022-09-09T01:52:34;4.60;;;2.20;;
24713;SDS011;12820;51.580;5.010;2022-09-09T01:57:47;4.18;;;2.20;;
24713;SDS011;12820;51.580;5.010;2022-09-09T02:08:28;6.70;;;2.08;;
24713;SDS011;12820;51.580;5.010;2022-09-09T02:13:46;4.55;;;2.20;;
24713;SDS011;12820;51.580;5.010;2022-09-09T02:24:26;5.82;;;2.25;;
24713;SDS011;12820;51.580;5.010;2022-09-09T02:29:43;5.43;;;2.58;;
24713;SDS011;12820;51.580;5.010;2022-09-09T02:34:54;5.45;;;2.47;;
24713;SDS011;12820;51.580;5.010;2022-09-09T02:45:07;5.82;;;2.10;;
24713;SDS011;12820;51.580;5.010;2022-09-09T02:50:22;5.25;;;1.95;;
24713;SDS011;12820;51.580;5.010;2022-09-09T02:55:39;3.85;;;1.80;;
24713;SDS011;12820;51.580;5.010;2022-09-09T03:00:47;4.83;;;2.07;;
24713;SDS011;12820;51.580;5.010;2022-09-09T03:05:53;5.55;;;1.75;;
24713;SDS011;12820;51.580;5.010;2022-09-09T03:10:57;4.55;;;1.77;;
24713;SDS011;12820;51.580;5.010;2022-09-09T03:16:05;9.07;;;1.95;;
24713;SDS011;12820;51.580;5.010;2022-09-09T03:21:14;5.50;;;1.80;;
24713;SDS011;12820;51.580;5.010;2022-09-09T03:26:16;3.17;;;1.33;;
24713;SDS011;12820;51.580;5.010;2022-09-09T03:31:21;6.57;;;1.90;;
24713;SDS011;12820;51.580;5.010;2022-09-09T03:36:25;5.18;;;1.90;;
24713;SDS011;12820;51.580;5.010;2022-09-09T03:41:28;3.97;;;1.95;;
24713;SDS011;12820;51.580;5.010;2022-09-09T03:46:31;5.72;;;1.85;;
24713;SDS011;12820;51.580;5.010;2022-09-09T03:51:34;3.28;;;1.70;;
24713;SDS011;12820;51.580;5.010;2022-09-09T03:56:39;9.18;;;2.20;;
24713;SDS011;12820;51.580;5.010;2022-09-09T04:01:45;5.25;;;1.65;;
24713;SDS011;12820;51.580;5.010;2022-09-09T04:06:48;4.78;;;1.77;;
24713;SDS011;12820;51.580;5.010;2022-09-09T04:11:53;5.95;;;1.98;;
24713;SDS011;12820;51.580;5.010;2022-09-09T04:16:55;3.97;;;2.00;;
24713;SDS011;12820;51.580;5.010;2022-09-09T04:22:00;5.75;;;2.00;;
24713;SDS011;12820;51.580;5.010;2022-09-09T04:27:02;9.93;;;2.17;;
24713;SDS011;12820;51.580;5.010;2022-09-09T04:32:07;7.95;;;2.40;;
24713;SDS011;12820;51.580;5.010;2022-09-09T04:37:09;5.32;;;2.00;;
24713;SDS011;12820;51.580;5.010;2022-09-09T04:42:12;4.40;;;1.75;;
24713;SDS011;12820;51.580;5.010;2022-09-09T04:47:14;6.82;;;1.85;;
24713;SDS011;12820;51.580;5.010;2022-09-09T04:52:16;4.68;;;1.90;;
24713;SDS011;12820;51.580;5.010;2022-09-09T04:57:19;5.88;;;2.00;;
24713;SDS011;12820;51.580;5.010;2022-09-09T05:02:22;5.97;;;1.80;;
24713;SDS011;12820;51.580;5.010;2022-09-09T05:07:26;4.97;;;1.98;;
24713;SDS011;12820;51.580;5.010;2022-09-09T05:12:29;9.85;;;1.80;;
24713;SDS011;12820;51.580;5.010;2022-09-09T05:17:32;8.32;;;2.08;;
24713;SDS011;12820;51.580;5.010;2022-09-09T05:22:35;4.85;;;2.10;;
24713;SDS011;12820;51.580;5.010;2022-09-09T05:27:37;4.75;;;2.00;;
24713;SDS011;12820;51.580;5.010;2022-09-09T05:32:40;7.22;;;2.25;;
24713;SDS011;12820;51.580;5.010;2022-09-09T05:37:43;7.03;;;1.90;;
24713;SDS011;12820;51.580;5.010;2022-09-09T05:42:47;8.43;;;1.92;;
24713;SDS011;12820;51.580;5.010;2022-09-09T05:47:51;6.78;;;2.00;;
24713;SDS011;12820;51.580;5.010;2022-09-09T05:52:55;4.30;;;2.00;;
24713;SDS011;12820;51.580;5.010;2022-09-09T05:57:57;6.22;;;1.88;;
24713;SDS011;12820;51.580;5.010;2022-09-09T06:03:00;13.23;;;2.70;;
24713;SDS011;12820;51.580;5.010;2022-09-09T06:08:02;7.13;;;1.42;;
24713;SDS011;12820;51.580;5.010;2022-09-09T06:13:06;5.18;;;2.00;;
24713;SDS011;12820;51.580;5.010;2022-09-09T06:18:08;4.53;;;1.73;;
24713;SDS011;12820;51.580;5.010;2022-09-09T06:23:11;10.10;;;1.77;;
24713;SDS011;12820;51.580;5.010;2022-09-09T06:28:14;5.30;;;2.30;;
24713;SDS011;12820;51.580;5.010;2022-09-09T06:33:17;5.57;;;2.10;;
24713;SDS011;12820;51.580;5.010;2022-09-09T06:38:19;7.93;;;2.20;;
24713;SDS011;12820;51.580;5.010;2022-09-09T06:43:21;7.00;;;2.30;;
24713;SDS011;12820;51.580;5.010;2022-09-09T06:48:26;9.77;;;2.60;;
24713;SDS011;12820;51.580;5.010;2022-09-09T06:53:30;7.80;;;2.22;;
24713;SDS011;12820;51.580;5.010;2022-09-09T06:58:36;6.28;;;2.20;;
24713;SDS011;12820;51.580;5.010;2022-09-09T07:03:39;5.05;;;1.65;;
24713;SDS011;12820;51.580;5.010;2022-09-09T07:08:43;7.38;;;2.10;;
24713;SDS011;12820;51.580;5.010;2022-09-09T07:14:00;9.82;;;2.83;;
24713;SDS011;12820;51.580;5.010;2022-09-09T07:19:03;9.68;;;2.22;;
24713;SDS011;12820;51.580;5.010;2022-09-09T07:24:06;6.75;;;1.90;;
24713;SDS011;12820;51.580;5.010;2022-09-09T07:29:14;6.30;;;2.50;;
24713;SDS011;12820;51.580;5.010;2022-09-09T07:34:22;8.77;;;1.95;;
24713;SDS011;12820;51.580;5.010;2022-09-09T07:39:24;9.90;;;2.15;;
24713;SDS011;12820;51.580;5.010;2022-09-09T07:44:28;7.35;;;2.15;;
24713;SDS011;12820;51.580;5.010;2022-09-09T07:49:40;9.48;;;2.20;;
24713;SDS011;12820;51.580;5.010;2022-09-09T07:54:43;6.55;;;1.85;;
24713;SDS011;12820;51.580;5.010;2022-09-09T07:59:48;10.35;;;2.72;;
24713;SDS011;12820;51.580;5.010;2022-09-09T08:04:50;8.05;;;1.80;;
24713;SDS011;12820;51.580;5.010;2022-09-09T08:09:55;6.18;;;1.80;;
24713;SDS011;12820;51.580;5.010;2022-09-09T08:15:01;8.20;;;2.10;;
24713;SDS011;12820;51.580;5.010;2022-09-09T08:20:07;5.03;;;1.77;;
24713;SDS011;12820;51.580;5.010;2022-09-09T08:25:10;6.28;;;1.77;;
24713;SDS011;12820;51.580;5.010;2022-09-09T08:30:13;6.57;;;1.52;;
24713;SDS011;12820;51.580;5.010;2022-09-09T08:35:15;6.45;;;1.63;;
24713;SDS011;12820;51.580;5.010;2022-09-09T08:40:22;7.07;;;1.80;;
24713;SDS011;12820;51.580;5.010;2022-09-09T08:45:35;6.03;;;1.90;;
24713;SDS011;12820;51.580;5.010;2022-09-09T08:50:49;7.55;;;1.70;;
24713;SDS011;12820;51.580;5.010;2022-09-09T08:56:00;5.82;;;1.55;;
24713;SDS011;12820;51.580;5.010;2022-09-09T09:06:50;8.07;;;1.52;;
24713;SDS011;12820;51.580;5.010;2022-09-09T09:12:10;7.33;;;1.23;;
24713;SDS011;12820;51.580;5.010;2022-09-09T09:17:20;6.05;;;1.40;;
24713;SDS011;12820;51.580;5.010;2022-09-09T09:33:18;7.65;;;1.63;;
24713;SDS011;12820;51.580;5.010;2022-09-09T09:38:27;5.00;;;1.15;;
24713;SDS011;12820;51.580;5.010;2022-09-09T09:43:53;5.25;;;1.60;;
24713;SDS011;12820;51.580;5.010;2022-09-09T09:49:01;6.65;;;1.70;;
24713;SDS011;12820;51.580;5.010;2022-09-09T09:59:32;8.70;;;1.42;;
24713;SDS011;12820;51.580;5.010;2022-09-09T10:04:46;8.25;;;1.75;;
24713;SDS011;12820;51.580;5.010;2022-09-09T10:09:53;7.28;;;1.50;;
24713;SDS011;12820;51.580;5.010;2022-09-09T10:15:10;7.15;;;1.60;;
24713;SDS011;12820;51.580;5.010;2022-09-09T10:26:12;5.03;;;1.20;;
24713;SDS011;12820;51.580;5.010;2022-09-09T10:31:37;4.22;;;1.10;;
24713;SDS011;12820;51.580;5.010;2022-09-09T10:36:54;7.53;;;1.45;;
24713;SDS011;12820;51.580;5.010;2022-09-09T10:42:09;7.13;;;1.70;;
24713;SDS011;12820;51.580;5.010;2022-09-09T10:52:32;6.30;;;1.33;;
24713;SDS011;12820;51.580;5.010;2022-09-09T11:02:56;7.15;;;1.65;;
24713;SDS011;12820;51.580;5.010;2022-09-09T11:13:15;5.90;;;1.23;;
24713;SDS011;12820;51.580;5.010;2022-09-09T11:18:22;6.13;;;1.95;;
24713;SDS011;12820;51.580;5.010;2022-09-09T11:23:26;5.70;;;1.70;;
24713;SDS011;12820;51.580;5.010;2022-09-09T11:44:31;6.53;;;1.40;;
24713;SDS011;12820;51.580;5.010;2022-09-09T11:49:41;4.80;;;1.50;;
24713;SDS011;12820;51.580;5.010;2022-09-09T11:54:47;4.60;;;1.10;;
24713;SDS011;12820;51.580;5.010;2022-09-09T11:59:51;7.75;;;1.55;;
24713;SDS011;12820;51.580;5.010;2022-09-09T12:04:59;9.60;;;1.65;;
24713;SDS011;12820;51.580;5.010;2022-09-09T12:10:19;4.50;;;1.45;;
24713;SDS011;12820;51.580;5.010;2022-09-09T12:15:26;5.82;;;1.38;;
24713;SDS011;12820;51.580;5.010;2022-09-09T12:20:33;5.45;;;1.35;;
24713;SDS011;12820;51.580;5.010;2022-09-09T12:25:44;5.75;;;1.38;;
24713;SDS011;12820;51.580;5.010;2022-09-09T12:31:17;5.10;;;1.50;;
24713;SDS011;12820;51.580;5.010;2022-09-09T12:36:29;4.13;;;1.50;;
24713;SDS011;12820;51.580;5.010;2022-09-09T12:41:34;5.78;;;1.30;;
24713;SDS011;12820;51.580;5.010;2022-09-09T12:46:39;7.32;;;2.00;;
24713;SDS011;12820;51.580;5.010;2022-09-09T12:51:43;6.50;;;1.50;;
24713;SDS011;12820;51.580;5.010;2022-09-09T12:56:46;7.18;;;1.27;;
24713;SDS011;12820;51.580;5.010;2022-09-09T13:01:56;2.72;;;1.02;;
24713;SDS011;12820;51.580;5.010;2022-09-09T13:07:06;6.05;;;1.48;;
24713;SDS011;12820;51.580;5.010;2022-09-09T13:12:14;4.07;;;1.00;;
24713;SDS011;12820;51.580;5.010;2022-09-09T13:17:23;3.33;;;1.30;;
24713;SDS011;12820;51.580;5.010;2022-09-09T13:22:36;5.22;;;1.23;;
24713;SDS011;12820;51.580;5.010;2022-09-09T13:27:41;5.18;;;1.00;;
24713;SDS011;12820;51.580;5.010;2022-09-09T13:33:00;4.50;;;0.90;;
24713;SDS011;12820;51.580;5.010;2022-09-09T13:38:08;3.55;;;0.85;;
24713;SDS011;12820;51.580;5.010;2022-09-09T13:43:15;2.05;;;0.57;;
24713;SDS011;12820;51.580;5.010;2022-09-09T13:48:22;2.25;;;0.63;;
24713;SDS011;12820;51.580;5.010;2022-09-09T13:53:25;2.65;;;0.70;;
24713;SDS011;12820;51.580;5.010;2022-09-09T13:58:27;4.05;;;1.10;;
24713;SDS011;12820;51.580;5.010;2022-09-09T14:03:32;4.40;;;1.00;;
24713;SDS011;12820;51.580;5.010;2022-09-09T14:08:35;1.60;;;0.55;;
24713;SDS011;12820;51.580;5.010;2022-09-09T14:13:39;2.72;;;0.75;;
24713;SDS011;12820;51.580;5.010;2022-09-09T14:18:41;2.88;;;0.70;;
24713;SDS011;12820;51.580;5.010;2022-09-09T14:23:43;5.68;;;1.30;;
24713;SDS011;12820;51.580;5.010;2022-09-09T14:28:45;3.25;;;1.10;;
24713;SDS011;12820;51.580;5.010;2022-09-09T14:33:57;3.58;;;1.33;;
24713;SDS011;12820;51.580;5.010;2022-09-09T14:38:59;5.25;;;1.38;;
24713;SDS011;12820;51.580;5.010;2022-09-09T14:44:01;4.70;;;1.23;;
24713;SDS011;12820;51.580;5.010;2022-09-09T14:49:03;5.10;;;1.63;;
24713;SDS011;12820;51.580;5.010;2022-09-09T14:54:06;5.15;;;1.30;;
24713;SDS011;12820;51.580;5.010;2022-09-09T14:59:08;3.65;;;1.10;;
24713;SDS011;12820;51.580;5.010;2022-09-09T15:04:11;4.05;;;0.88;;
24713;SDS011;12820;51.580;5.010;2022-09-09T15:09:14;4.93;;;1.10;;
24713;SDS011;12820;51.580;5.010;2022-09-09T15:14:17;4.63;;;1.33;;
24713;SDS011;12820;51.580;5.010;2022-09-09T15:19:26;3.35;;;1.02;;
24713;SDS011;12820;51.580;5.010;2022-09-09T15:24:28;2.88;;;1.05;;
24713;SDS011;12820;51.580;5.010;2022-09-09T15:29:33;5.30;;;1.48;;
24713;SDS011;12820;51.580;5.010;2022-09-09T15:34:35;3.78;;;1.30;;
24713;SDS011;12820;51.580;5.010;2022-09-09T15:39:37;2.75;;;1.17;;
24713;SDS011;12820;51.580;5.010;2022-09-09T15:44:40;5.03;;;1.50;;
24713;SDS011;12820;51.580;5.010;2022-09-09T15:49:45;5.45;;;1.50;;
24713;SDS011;12820;51.580;5.010;2022-09-09T15:54:50;3.92;;;1.45;;
24713;SDS011;12820;51.580;5.010;2022-09-09T15:59:53;4.97;;;1.73;;
24713;SDS011;12820;51.580;5.010;2022-09-09T16:04:55;5.30;;;1.63;;
24713;SDS011;12820;51.580;5.010;2022-09-09T16:09:57;4.47;;;1.80;;
24713;SDS011;12820;51.580;5.010;2022-09-09T16:15:00;3.90;;;1.83;;
24713;SDS011;12820;51.580;5.010;2022-09-09T16:20:03;3.92;;;1.58;;
24713;SDS011;12820;51.580;5.010;2022-09-09T16:25:08;5.30;;;2.03;;
24713;SDS011;12820;51.580;5.010;2022-09-09T16:30:10;4.47;;;2.00;;
24713;SDS011;12820;51.580;5.010;2022-09-09T16:35:12;7.15;;;2.10;;
24713;SDS011;12820;51.580;5.010;2022-09-09T16:40:14;6.03;;;2.78;;
24713;SDS011;12820;51.580;5.010;2022-09-09T16:45:19;5.28;;;2.20;;
24713;SDS011;12820;51.580;5.010;2022-09-09T16:50:21;5.45;;;2.30;;
24713;SDS011;12820;51.580;5.010;2022-09-09T16:55:26;5.47;;;2.17;;
24713;SDS011;12820;51.580;5.010;2022-09-09T17:00:28;8.25;;;1.73;;
24713;SDS011;12820;51.580;5.010;2022-09-09T17:05:30;6.07;;;1.42;;
24713;SDS011;12820;51.580;5.010;2022-09-09T17:10:40;5.15;;;1.92;;
24713;SDS011;12820;51.580;5.010;2022-09-09T17:15:43;4.28;;;1.73;;
24713;SDS011;12820;51.580;5.010;2022-09-09T17:20:45;5.20;;;1.75;;
24713;SDS011;12820;51.580;5.010;2022-09-09T17:25:55;3.45;;;1.70;;
24713;SDS011;12820;51.580;5.010;2022-09-09T17:30:58;4.65;;;1.45;;
24713;SDS011;12820;51.580;5.010;2022-09-09T17:41:25;4.90;;;1.95;;
24713;SDS011;12820;51.580;5.010;2022-09-09T17:46:30;5.60;;;1.90;;
24713;SDS011;12820;51.580;5.010;2022-09-09T17:51:39;5.15;;;2.33;;
24713;SDS011;12820;51.580;5.010;2022-09-09T17:56:43;3.88;;;2.10;;
24713;SDS011;12820;51.580;5.010;2022-09-09T18:01:47;6.88;;;2.50;;
24713;SDS011;12820;51.580;5.010;2022-09-09T18:06:51;5.57;;;2.20;;
24713;SDS011;12820;51.580;5.010;2022-09-09T18:11:55;4.82;;;1.90;;
24713;SDS011;12820;51.580;5.010;2022-09-09T18:17:00;7.03;;;2.17;;
24713;SDS011;12820;51.580;5.010;2022-09-09T18:22:03;7.03;;;2.88;;
24713;SDS011;12820;51.580;5.010;2022-09-09T18:27:06;6.75;;;2.75;;
24713;SDS011;12820;51.580;5.010;2022-09-09T18:32:08;8.43;;;3.22;;
24713;SDS011;12820;51.580;5.010;2022-09-09T18:37:10;7.07;;;3.05;;
24713;SDS011;12820;51.580;5.010;2022-09-09T18:42:12;8.45;;;3.70;;
24713;SDS011;12820;51.580;5.010;2022-09-09T18:47:15;8.15;;;3.35;;
24713;SDS011;12820;51.580;5.010;2022-09-09T18:52:18;6.45;;;3.60;;
24713;SDS011;12820;51.580;5.010;2022-09-09T18:57:20;8.55;;;3.97;;
24713;SDS011;12820;51.580;5.010;2022-09-09T19:02:22;7.95;;;4.35;;
24713;SDS011;12820;51.580;5.010;2022-09-09T19:07:24;7.18;;;3.97;;
24713;SDS011;12820;51.580;5.010;2022-09-09T19:12:26;9.48;;;5.45;;
24713;SDS011;12820;51.580;5.010;2022-09-09T19:17:28;8.43;;;4.28;;
24713;SDS011;12820;51.580;5.010;2022-09-09T19:22:32;6.15;;;3.58;;
24713;SDS011;12820;51.580;5.010;2022-09-09T19:27:35;7.53;;;3.72;;
24713;SDS011;12820;51.580;5.010;2022-09-09T19:32:38;6.50;;;3.70;;
24713;SDS011;12820;51.580;5.010;2022-09-09T19:37:56;8.23;;;3.92;;
24713;SDS011;12820;51.580;5.010;2022-09-09T19:42:59;7.03;;;4.20;;
24713;SDS011;12820;51.580;5.010;2022-09-09T19:48:02;8.52;;;4.30;;
24713;SDS011;12820;51.580;5.010;2022-09-09T19:53:05;8.77;;;3.90;;
24713;SDS011;12820;51.580;5.010;2022-09-09T19:58:07;7.45;;;4.50;;
24713;SDS011;12820;51.580;5.010;2022-09-09T20:03:09;8.43;;;4.60;;
24713;SDS011;12820;51.580;5.010;2022-09-09T20:08:20;8.45;;;4.63;;
24713;SDS011;12820;51.580;5.010;2022-09-09T20:13:22;8.13;;;4.80;;
24713;SDS011;12820;51.580;5.010;2022-09-09T20:18:31;11.30;;;4.95;;
24713;SDS011;12820;51.580;5.010;2022-09-09T20:23:35;10.70;;;5.70;;
24713;SDS011;12820;51.580;5.010;2022-09-09T20:28:38;10.70;;;5.30;;
24713;SDS011;12820;51.580;5.010;2022-09-09T20:33:42;9.18;;;5.40;;
24713;SDS011;12820;51.580;5.010;2022-09-09T20:38:46;8.20;;;4.93;;
24713;SDS011;12820;51.580;5.010;2022-09-09T20:43:56;8.50;;;4.43;;
24713;SDS011;12820;51.580;5.010;2022-09-09T20:48:59;8.35;;;3.83;;
24713;SDS011;12820;51.580;5.010;2022-09-09T20:54:05;8.40;;;3.78;;
24713;SDS011;12820;51.580;5.010;2022-09-09T20:59:12;10.68;;;3.53;;
24713;SDS011;12820;51.580;5.010;2022-09-09T21:04:17;6.93;;;2.83;;
24713;SDS011;12820;51.580;5.010;2022-09-09T21:09:20;7.72;;;3.05;;
24713;SDS011;12820;51.580;5.010;2022-09-09T21:14:25;5.93;;;2.67;;
24713;SDS011;12820;51.580;5.010;2022-09-09T21:19:28;7.53;;;2.53;;
24713;SDS011;12820;51.580;5.010;2022-09-09T21:24:30;10.18;;;3.13;;
24713;SDS011;12820;51.580;5.010;2022-09-09T21:29:32;6.57;;;2.33;;
24713;SDS011;12820;51.580;5.010;2022-09-09T21:34:34;6.45;;;2.55;;
24713;SDS011;12820;51.580;5.010;2022-09-09T21:39:41;7.72;;;2.83;;
24713;SDS011;12820;51.580;5.010;2022-09-09T21:44:43;4.18;;;1.88;;
24713;SDS011;12820;51.580;5.010;2022-09-09T21:49:45;12.63;;;2.45;;
24713;SDS011;12820;51.580;5.010;2022-09-09T21:54:47;4.55;;;2.08;;
24713;SDS011;12820;51.580;5.010;2022-09-09T21:59:50;8.05;;;2.10;;
24713;SDS011;12820;51.580;5.010;2022-09-09T22:04:53;6.78;;;1.90;;
24713;SDS011;12820;51.580;5.010;2022-09-09T22:09:55;5.20;;;1.75;;
24713;SDS011;12820;51.580;5.010;2022-09-09T22:14:58;8.38;;;1.92;;
24713;SDS011;12820;51.580;5.010;2022-09-09T22:20:00;10.68;;;2.10;;
24713;SDS011;12820;51.580;5.010;2022-09-09T22:25:02;9.70;;;1.80;;
24713;SDS011;12820;51.580;5.010;2022-09-09T22:30:05;5.72;;;1.88;;
24713;SDS011;12820;51.580;5.010;2022-09-09T22:35:08;7.43;;;1.60;;
24713;SDS011;12820;51.580;5.010;2022-09-09T22:40:10;7.88;;;1.90;;
24713;SDS011;12820;51.580;5.010;2022-09-09T22:45:14;11.73;;;2.30;;
24713;SDS011;12820;51.580;5.010;2022-09-09T22:50:17;12.38;;;1.70;;
24713;SDS011;12820;51.580;5.010;2022-09-09T22:55:21;7.85;;;2.30;;
24713;SDS011;12820;51.580;5.010;2022-09-09T23:00:23;6.90;;;1.88;;
24713;SDS011;12820;51.580;5.010;2022-09-09T23:05:26;6.75;;;2.10;;
24713;SDS011;12820;51.580;5.010;2022-09-09T23:10:29;10.65;;;2.30;;
24713;SDS011;12820;51.580;5.010;2022-09-09T23:15:34;6.93;;;2.22;;
24713;SDS011;12820;51.580;5.010;2022-09-09T23:20:37;8.68;;;2.60;;
24713;SDS011;12820;51.580;5.010;2022-09-09T23:25:39;10.48;;;2.85;;
24713;SDS011;12820;51.580;5.010;2022-09-09T23:30:41;7.30;;;2.38;;
24713;SDS011;12820;51.580;5.010;2022-09-09T23:35:43;7.97;;;2.53;;
24713;SDS011;12820;51.580;5.010;2022-09-09T23:40:45;8.02;;;3.08;;
24713;SDS011;12820;51.580;5.010;2022-09-09T23:45:47;7.30;;;2.80;;
24713;SDS011;12820;51.580;5.010;2022-09-09T23:50:51;14.00;;;3.83;;
24713;SDS011;12820;51.580;5.010;2022-09-09T23:55:53;11.85;;;3.75;;
